Sanko Independence — A8QJ9 — position and weather

sailwx.info

Track history (hours):
 
Tides and Currents Weather Stations Pressure Air Temp Water Temp Dewpoint Dewpoint Depression Visibility Wind Speed Wind Dir Waves Ship Positions

Sanko Independence

Last reported at 2014-Oct-02 10:33 UTC. Time now 2014-Oct-02 12:34 UTC.
Position N 35°59' W 005°30'.

Length 174 m; draft 9.6 m.

Type: Ship (hazmat cat C). MMSI: 636013946.

Date/timePositionNaut miles runAvg speedWind from/ knotsBaromVisibWave heightAir tempDewpointWater temp
2014-Oct-02 10:33N 35°59' W 005°30'27716.0
2014-Oct-01 17:15N 36°42' E 000°09'11016.1
2014-Oct-01 10:25N 37°04' E 002°24'1416.3
2014-Oct-01 09:32N 37°07' E 002°41'3715.8
2014-Oct-01 07:12N 37°15' E 003°27'1115.3
2014-Oct-01 06:31N 37°17' E 003°40'1414.7
2014-Oct-01 05:33N 37°18' E 003°57'1615.8
2014-Oct-01 04:32N 37°18' E 004°17'1616.4
2014-Oct-01 03:33N 37°18' E 004°38'1716.4
2014-Oct-01 02:33N 37°18' E 004°58'5016.5
2014-Sep-30 23:30N 37°17' E 006°02'37615.7
2014-Sep-29 23:33N 36°36' E 013°50'1616.2
2014-Sep-29 22:33N 36°29' E 014°08'1616.0
2014-Sep-29 21:33N 36°24' E 014°27'44715.3
2014-Sep-28 16:24N 36°45' E 023°43'1517.4
2014-Sep-28 15:33N 36°58' E 023°54'1717.2
2014-Sep-28 14:33N 37°12' E 024°05'1716.5
2014-Sep-28 13:33N 37°25' E 024°18'1816.2
2014-Sep-28 12:26N 37°41' E 024°30'28411.7
2014-Sep-27 12:09N 40°57' E 028°56'2 2.8
2014-Sep-27 11:33N 40°58' E 028°58'1110.2
2014-Sep-27 10:28N 41°08' E 029°04'910.0
2014-Sep-27 09:33N 41°17' E 029°08'1312.6
2014-Sep-27 08:33N 41°29' E 029°12'  
2014-Sep-24 07:12N 41°32' E 029°40'2 2.5
2014-Sep-24 06:33N 41°32' E 029°38'43 4.7
2014-Sep-23 21:33N 41°01' E 028°60'9 8.8
2014-Sep-23 20:33N 40°52' E 029°01'9 9.5
2014-Sep-23 19:33N 40°46' E 029°11'1 0.9
2014-Sep-23 18:33N 40°46' E 029°10'1 1.1
2014-Sep-23 17:33N 40°46' E 029°09'1 1.1
2014-Sep-23 16:33N 40°45' E 029°07'1 1.2
2014-Sep-23 15:33N 40°45' E 029°06'1 1.2
2014-Sep-23 14:32N 40°45' E 029°04'2 1.6
2014-Sep-23 13:24N 40°46' E 029°03'1 1.4
2014-Sep-23 12:33N 40°46' E 029°01'1 1.4
2014-Sep-23 11:32N 40°46' E 028°59'1 1.5
2014-Sep-23 10:33N 40°46' E 028°57'1 1.2
2014-Sep-23 09:33N 40°47' E 028°56'1 1.1
2014-Sep-23 08:33N 40°47' E 028°55'1 0.8
2014-Sep-23 07:32N 40°48' E 028°55'0 0.4
2014-Sep-23 06:30N 40°49' E 028°55'5 5.3
2014-Sep-23 05:33N 40°47' E 029°01'0 0.4
2014-Sep-23 04:33N 40°47' E 029°01'1 0.9
2014-Sep-23 03:33N 40°47' E 028°59'1 0.9
2014-Sep-23 02:33N 40°48' E 028°58'1 1.0
2014-Sep-23 01:33N 40°48' E 028°57'1 1.0
2014-Sep-23 00:32N 40°48' E 028°56'1 0.9
2014-Sep-22 23:33N 40°47' E 028°54'0 0.4
2014-Sep-22 22:33N 40°47' E 028°54'0 0.2
2014-Sep-22 21:33N 40°47' E 028°54'0 0.2
2014-Sep-22 20:30N 40°48' E 028°54'0 0.1
2014-Sep-22 19:33N 40°47' E 028°54'6 6.0
2014-Sep-22 18:33N 40°42' E 028°52'1 0.6
2014-Sep-22 17:33N 40°42' E 028°53'1 0.6
2014-Sep-22 16:33N 40°42' E 028°53'1 0.7
2014-Sep-22 15:33N 40°43' E 028°54'1 0.7
2014-Sep-22 14:33N 40°43' E 028°55'1 0.7
2014-Sep-22 13:33N 40°44' E 028°55'1 0.7
2014-Sep-22 12:33N 40°45' E 028°55'1 0.6
2014-Sep-22 11:33N 40°45' E 028°55'  
Track history (hours):
 
Tides and Currents Weather Stations Pressure Air Temp Water Temp Dewpoint Dewpoint Depression Visibility Wind Speed Wind Dir Waves Ship Positions

Sanko Independence

Last reported at 2014-Oct-02 10:33 UTC. Time now 2014-Oct-02 12:34 UTC.
Position N 35°59' W 005°30'.

Length 174 m; draft 9.6 m.

Type: Ship (hazmat cat C). MMSI: 636013946.

Date/timePositionNaut miles runAvg speedWind from/ knotsBaromVisibWave heightAir tempDewpointWater temp
2014-Oct-02 10:33N 35°59' W 005°30'27716.0
2014-Oct-01 17:15N 36°42' E 000°09'11016.1
2014-Oct-01 10:25N 37°04' E 002°24'1416.3
2014-Oct-01 09:32N 37°07' E 002°41'3715.8
2014-Oct-01 07:12N 37°15' E 003°27'1115.3
2014-Oct-01 06:31N 37°17' E 003°40'1414.7
2014-Oct-01 05:33N 37°18' E 003°57'1615.8
2014-Oct-01 04:32N 37°18' E 004°17'1616.4
2014-Oct-01 03:33N 37°18' E 004°38'1716.4
2014-Oct-01 02:33N 37°18' E 004°58'5016.5
2014-Sep-30 23:30N 37°17' E 006°02'37615.7
2014-Sep-29 23:33N 36°36' E 013°50'1616.2
2014-Sep-29 22:33N 36°29' E 014°08'1616.0
2014-Sep-29 21:33N 36°24' E 014°27'44715.3
2014-Sep-28 16:24N 36°45' E 023°43'1517.4
2014-Sep-28 15:33N 36°58' E 023°54'1717.2
2014-Sep-28 14:33N 37°12' E 024°05'1716.5
2014-Sep-28 13:33N 37°25' E 024°18'1816.2
2014-Sep-28 12:26N 37°41' E 024°30'28411.7
2014-Sep-27 12:09N 40°57' E 028°56'2 2.8
2014-Sep-27 11:33N 40°58' E 028°58'1110.2
2014-Sep-27 10:28N 41°08' E 029°04'910.0
2014-Sep-27 09:33N 41°17' E 029°08'1312.6
2014-Sep-27 08:33N 41°29' E 029°12'  
2014-Sep-24 07:12N 41°32' E 029°40'2 2.5
2014-Sep-24 06:33N 41°32' E 029°38'43 4.7
2014-Sep-23 21:33N 41°01' E 028°60'9 8.8
2014-Sep-23 20:33N 40°52' E 029°01'9 9.5
2014-Sep-23 19:33N 40°46' E 029°11'1 0.9
2014-Sep-23 18:33N 40°46' E 029°10'1 1.1
2014-Sep-23 17:33N 40°46' E 029°09'1 1.1
2014-Sep-23 16:33N 40°45' E 029°07'1 1.2
2014-Sep-23 15:33N 40°45' E 029°06'1 1.2
2014-Sep-23 14:32N 40°45' E 029°04'2 1.6
2014-Sep-23 13:24N 40°46' E 029°03'1 1.4
2014-Sep-23 12:33N 40°46' E 029°01'1 1.4
2014-Sep-23 11:32N 40°46' E 028°59'1 1.5
2014-Sep-23 10:33N 40°46' E 028°57'1 1.2
2014-Sep-23 09:33N 40°47' E 028°56'1 1.1
2014-Sep-23 08:33N 40°47' E 028°55'1 0.8
2014-Sep-23 07:32N 40°48' E 028°55'0 0.4
2014-Sep-23 06:30N 40°49' E 028°55'5 5.3
2014-Sep-23 05:33N 40°47' E 029°01'0 0.4
2014-Sep-23 04:33N 40°47' E 029°01'1 0.9
2014-Sep-23 03:33N 40°47' E 028°59'1 0.9
2014-Sep-23 02:33N 40°48' E 028°58'1 1.0
2014-Sep-23 01:33N 40°48' E 028°57'1 1.0
2014-Sep-23 00:32N 40°48' E 028°56'1 0.9
2014-Sep-22 23:33N 40°47' E 028°54'0 0.4
2014-Sep-22 22:33N 40°47' E 028°54'0 0.2
2014-Sep-22 21:33N 40°47' E 028°54'0 0.2
2014-Sep-22 20:30N 40°48' E 028°54'0 0.1
2014-Sep-22 19:33N 40°47' E 028°54'6 6.0
2014-Sep-22 18:33N 40°42' E 028°52'1 0.6
2014-Sep-22 17:33N 40°42' E 028°53'1 0.6
2014-Sep-22 16:33N 40°42' E 028°53'1 0.7
2014-Sep-22 15:33N 40°43' E 028°54'1 0.7
2014-Sep-22 14:33N 40°43' E 028°55'1 0.7
2014-Sep-22 13:33N 40°44' E 028°55'1 0.7
2014-Sep-22 12:33N 40°45' E 028°55'1 0.6
2014-Sep-22 11:33N 40°45' E 028°55'  

Dump ship's entire track history